Time;durP1;ratioP1;P1;durP2;ratioP2;P2;SDS_P1;SDS_P2;PMS_P1;PMS_P2;Temp;Humidity;BMP_temperature;BMP_pressure;BME280_temperature;BME280_humidity;BME280_pressure;Samples;Min_cycle;Max_cycle;Signal;HPM_P1;HPM_P2
2021/07/20 00:00:13;;;;;;;3.40;2.30;;;;;;;18.14;66.32;101304.52;1846965;77;20982;-84
2021/07/20 00:02:44;;;;;;;5.12;2.77;;;;;;;18.10;66.46;101304.06;1846843;77;21050;-84
2021/07/20 00:05:13;;;;;;;6.75;2.80;;;;;;;18.03;66.51;101304.02;1846579;77;20987;-84
2021/07/20 00:07:40;;;;;;;3.42;2.10;;;;;;;17.99;66.64;101301.36;1847030;77;20983;-84
2021/07/20 00:10:11;;;;;;;4.90;2.50;;;;;;;17.93;66.77;101306.22;1846933;77;22553;-84
2021/07/20 00:12:38;;;;;;;6.92;2.58;;;;;;;17.86;66.86;101307.95;1847339;77;20971;-89
2021/07/20 00:15:07;;;;;;;5.83;2.60;;;;;;;17.78;66.98;101296.36;1847145;76;20964;-89
2021/07/20 00:17:34;;;;;;;4.05;2.70;;;;;;;17.72;67.17;101303.01;1847535;77;21073;-89
2021/07/20 00:20:03;;;;;;;4.40;2.75;;;;;;;17.65;67.32;101300.74;1832533;77;21105;-90
2021/07/20 00:22:29;;;;;;;3.02;2.35;;;;;;;17.60;67.53;101301.60;1833327;78;21777;-89
2021/07/20 00:24:56;;;;;;;6.65;2.72;;;;;;;17.57;67.74;101301.16;1833009;77;21458;-90
2021/07/20 00:27:23;;;;;;;3.58;2.37;;;;;;;17.53;67.86;101298.45;1833475;78;21019;-90
2021/07/20 00:29:50;;;;;;;3.35;2.45;;;;;;;17.51;68.01;101298.44;1833212;78;21496;-89
2021/07/20 00:32:16;;;;;;;3.62;2.42;;;;;;;17.47;68.13;101296.66;1833486;78;20963;-84
2021/07/20 00:34:43;;;;;;;3.60;2.67;;;;;;;17.45;68.28;101298.42;1833407;78;21735;-90
2021/07/20 00:37:10;;;;;;;4.45;2.90;;;;;;;17.42;68.33;101295.77;1833235;78;20984;-90
2021/07/20 00:39:36;;;;;;;3.90;2.75;;;;;;;17.39;68.49;101302.39;1833150;78;21457;-90
2021/07/20 00:42:04;;;;;;;4.05;3.02;;;;;;;17.35;68.57;101296.16;1833178;78;21182;-90
2021/07/20 00:44:31;;;;;;;4.42;2.45;;;;;;;17.32;68.67;101300.56;1833246;78;20995;-89
2021/07/20 00:46:57;;;;;;;5.00;2.92;;;;;;;17.27;68.74;101297.44;1833257;78;22542;-90
2021/07/20 00:49:24;;;;;;;4.05;2.72;;;;;;;17.22;68.88;101309.81;1833184;78;20997;-89
2021/07/20 00:51:51;;;;;;;5.60;2.47;;;;;;;17.18;69.01;101301.37;1833168;78;21770;-89
2021/07/20 00:54:17;;;;;;;2.95;2.12;;;;;;;17.16;69.19;101300.47;1833337;78;20983;-84
2021/07/20 00:56:44;;;;;;;5.72;2.75;;;;;;;17.12;69.30;101304.00;1833142;78;21579;-84
2021/07/20 00:59:12;;;;;;;4.17;2.58;;;;;;;17.09;69.49;101298.64;1833232;78;21662;-84
2021/07/20 01:01:39;;;;;;;6.00;2.77;;;;;;;17.05;69.61;101297.73;1833026;78;20975;-84
2021/07/20 01:04:06;;;;;;;5.80;2.83;;;;;;;16.98;69.73;101294.57;1833139;78;21054;-84
2021/07/20 01:06:35;;;;;;;6.20;3.08;;;;;;;16.96;69.82;101296.33;1833127;78;21055;-84
2021/07/20 01:09:03;;;;;;;5.45;2.87;;;;;;;16.91;69.96;101298.05;1810272;78;21075;-84
2021/07/20 01:11:32;;;;;;;3.90;2.80;;;;;;;16.84;70.13;101291.82;1833279;78;21709;-84
2021/07/20 01:14:01;;;;;;;4.12;2.85;;;;;;;16.81;70.28;101295.73;1833030;78;21473;-84
2021/07/20 01:16:28;;;;;;;3.00;2.65;;;;;;;16.76;70.40;101293.50;1833197;78;20944;-84
2021/07/20 01:18:55;;;;;;;4.67;3.00;;;;;;;16.73;70.60;101293.47;1833255;78;21011;-90
2021/07/20 01:21:31;;;;;;;4.78;2.92;;;;;;;16.68;70.74;101297.39;1833412;78;20976;-84
2021/07/20 01:23:58;;;;;;;5.12;3.00;;;;;;;16.65;70.90;101292.52;1833004;77;22678;-84
2021/07/20 01:26:25;;;;;;;3.72;2.80;;;;;;;16.63;71.11;101296.91;1832781;78;20992;-84
2021/07/20 01:28:53;;;;;;;4.42;2.90;;;;;;;16.60;71.22;101300.44;1833076;78;20975;-84
2021/07/20 01:31:23;;;;;;;4.42;2.95;;;;;;;16.56;71.29;101293.77;1832814;78;21006;-84
2021/07/20 01:33:52;;;;;;;7.22;2.90;;;;;;;16.53;71.48;101291.95;1833424;78;21116;-84
2021/07/20 01:36:22;;;;;;;8.05;3.15;;;;;;;16.48;71.58;101287.94;1833217;78;21740;-84
2021/07/20 01:38:48;;;;;;;6.28;3.02;;;;;;;16.45;71.70;101291.88;1833129;78;21057;-84
2021/07/20 01:41:16;;;;;;;4.00;2.72;;;;;;;16.42;71.84;101290.55;1833257;78;21032;-84
2021/07/20 01:43:49;;;;;;;4.90;2.85;;;;;;;16.40;72.03;101290.06;1828652;78;21007;-89
2021/07/20 01:46:17;;;;;;;7.83;3.05;;;;;;;16.37;72.09;101288.69;1833100;78;36468;-88
2021/07/20 01:48:45;;;;;;;7.97;2.90;;;;;;;16.36;72.27;101294.89;1833017;78;21752;-89
2021/07/20 01:51:12;;;;;;;7.90;3.15;;;;;;;16.31;72.32;101291.77;1800685;78;20975;-90
2021/07/20 01:53:40;;;;;;;3.95;2.80;;;;;;;16.29;72.44;101294.84;1833290;78;21035;-89
2021/07/20 01:56:09;;;;;;;5.00;3.02;;;;;;;16.27;72.56;101289.05;1800604;78;20991;-89
2021/07/20 01:58:42;;;;;;;6.28;2.87;;;;;;;16.25;72.59;101288.14;1833277;78;20987;-89
2021/07/20 02:01:17;;;;;;;5.08;2.90;;;;;;;16.23;72.74;101284.58;1833508;78;21738;-88
2021/07/20 02:09:06;;;;;;;5.58;3.58;;;;;;;16.15;73.15;101279.19;1833332;78;21532;-89
2021/07/20 02:11:36;;;;;;;5.37;2.65;;;;;;;16.13;73.23;101280.94;1833315;78;21004;-90
2021/07/20 02:14:07;;;;;;;4.10;2.72;;;;;;;16.12;73.32;101277.41;1833432;78;21163;-89
2021/07/20 02:16:40;;;;;;;8.88;2.83;;;;;;;16.11;73.51;101281.37;1833335;78;21472;-90
2021/07/20 02:19:30;;;;;;;4.50;2.90;;;;;;;16.09;73.60;101279.13;1833624;78;21462;-90
2021/07/20 02:21:57;;;;;;;7.08;3.10;;;;;;;16.08;73.76;101282.20;1832817;78;21481;-90
2021/07/20 02:24:30;;;;;;;3.75;2.70;;;;;;;16.07;73.87;101275.13;1833283;78;20937;-84
2021/07/20 02:26:59;;;;;;;4.58;3.20;;;;;;;16.07;73.97;101274.25;1833394;78;21735;-90
2021/07/20 02:29:26;;;;;;;7.58;3.45;;;;;;;16.05;74.05;101268.91;1833279;78;20920;-90
2021/07/20 02:31:55;;;;;;;4.42;2.90;;;;;;;16.05;74.16;101268.03;1832749;78;21010;-90
2021/07/20 02:34:23;;;;;;;6.80;3.10;;;;;;;16.05;74.24;101270.69;1833299;78;21034;-90
2021/07/20 02:36:50;;;;;;;6.97;3.27;;;;;;;16.05;74.30;101270.23;1833401;78;21500;-90
2021/07/20 02:39:16;;;;;;;6.25;3.15;;;;;;;16.06;74.41;101267.14;1833391;78;21727;-90
2021/07/20 02:41:43;;;;;;;5.28;3.45;;;;;;;16.05;74.42;101274.22;1833451;78;21074;-90
2021/07/20 02:44:10;;;;;;;9.90;3.33;;;;;;;16.06;74.54;101269.34;1833368;78;20995;-90
2021/07/20 02:46:36;;;;;;;6.05;3.75;;;;;;;16.07;74.61;101270.27;1833536;78;21015;-90
2021/07/20 02:49:03;;;;;;;6.40;3.22;;;;;;;16.08;74.71;101266.27;1833373;78;21086;-90
2021/07/20 02:51:32;;;;;;;5.17;2.85;;;;;;;16.08;74.77;101262.73;1833182;78;21724;-90
2021/07/20 02:53:59;;;;;;;5.83;3.30;;;;;;;16.09;74.80;101267.19;1833090;78;21492;-90
2021/07/20 02:56:26;;;;;;;5.17;3.20;;;;;;;16.11;74.87;101268.97;1833075;78;21381;-90
2021/07/20 02:58:54;;;;;;;6.33;3.20;;;;;;;16.13;74.90;101269.88;1833169;78;20964;-89
2021/07/20 03:01:21;;;;;;;8.25;3.80;;;;;;;16.17;74.92;101273.90;1834187;77;21015;-90
2021/07/20 03:03:48;;;;;;;7.55;3.17;;;;;;;16.21;74.98;101276.59;1833110;78;21678;-89
2021/07/20 03:06:15;;;;;;;4.65;3.17;;;;;;;16.26;74.96;101276.66;1832948;78;21050;-90
2021/07/20 03:08:42;;;;;;;4.87;3.02;;;;;;;16.30;74.92;101279.34;1833133;78;21000;-90
2021/07/20 03:11:12;;;;;;;5.83;3.00;;;;;;;16.33;74.91;101278.05;1833029;78;21503;-90
2021/07/20 03:13:43;;;;;;;4.42;2.90;;;;;;;16.39;74.92;101278.55;1833257;78;21019;-90
2021/07/20 03:16:10;;;;;;;5.25;3.00;;;;;;;16.45;74.92;101279.05;1795085;78;21747;-90
2021/07/20 03:18:38;;;;;;;5.65;3.20;;;;;;;16.50;74.95;101276.00;1830995;78;21019;-90
2021/07/20 03:21:04;;;;;;;5.28;3.05;;;;;;;16.58;74.94;101282.27;1833029;78;21481;-90
2021/07/20 03:23:31;;;;;;;6.20;3.33;;;;;;;16.64;74.86;101276.11;1832779;78;21521;-88
2021/07/20 03:25:58;;;;;;;4.45;2.77;;;;;;;16.71;74.82;101276.62;1833158;78;20979;-89
2021/07/20 03:28:25;;;;;;;4.92;3.05;;;;;;;16.78;74.77;101270.89;1833223;78;22424;-90
2021/07/20 03:30:54;;;;;;;7.47;3.95;;;;;;;16.87;74.72;101270.58;1832893;78;20980;-90
2021/07/20 03:33:22;;;;;;;6.20;3.35;;;;;;;16.99;74.63;101272.88;1833190;78;20971;-90
2021/07/20 03:35:49;;;;;;;6.67;3.33;;;;;;;17.13;74.52;101271.63;1833235;78;21007;-90
2021/07/20 03:38:20;;;;;;;7.03;3.02;;;;;;;17.27;74.33;101276.16;1833283;78;21238;-90
2021/07/20 03:40:48;;;;;;;4.90;3.22;;;;;;;17.44;74.18;101276.70;1833036;78;21767;-90
2021/07/20 03:43:17;;;;;;;3.70;2.87;;;;;;;17.76;74.39;101275.50;1833151;78;21003;-90
2021/07/20 03:45:44;;;;;;;3.90;3.02;;;;;;;18.22;73.97;101270.77;1833225;78;21022;-91
2021/07/20 03:48:13;;;;;;;5.20;2.77;;;;;;;18.76;73.86;101273.03;1833351;78;20988;-90
2021/07/20 03:50:42;;;;;;;5.45;2.92;;;;;;;19.74;73.99;101271.95;1833270;78;21006;-90
2021/07/20 03:53:08;;;;;;;3.72;2.55;;;;;;;21.16;73.43;101270.48;1833471;78;21722;-90
2021/07/20 03:55:35;;;;;;;4.80;3.00;;;;;;;22.56;71.36;101265.13;1833194;78;21031;-90
2021/07/20 03:58:03;;;;;;;5.45;2.75;;;;;;;23.82;69.85;101261.89;1833026;78;21556;-90
2021/07/20 04:00:32;;;;;;;7.47;2.85;;;;;;;24.98;67.54;101264.02;1833276;78;21023;-90
2021/07/20 04:05:49;;;;;;;4.08;3.20;;;;;;;26.87;63.42;101258.78;1833357;78;21617;-90
2021/07/20 04:08:18;;;;;;;5.75;4.03;;;;;;;27.79;61.28;101259.95;1833142;78;21022;-90
2021/07/20 04:10:47;;;;;;;7.70;2.90;;;;;;;28.49;59.54;101259.86;1833246;78;21062;-91
2021/07/20 04:13:14;;;;;;;9.70;3.47;;;;;;;29.12;58.18;101256.77;1832645;78;21003;-90
2021/07/20 04:15:47;;;;;;;5.95;2.60;;;;;;;29.69;56.49;101259.12;1833370;78;21003;-90
2021/07/20 04:18:14;;;;;;;6.70;2.77;;;;;;;30.27;55.41;101258.17;1833263;78;22673;-90
2021/07/20 04:20:43;;;;;;;5.22;2.98;;;;;;;31.04;53.85;101262.47;1833357;78;20980;-89
2021/07/20 04:23:09;;;;;;;6.35;3.37;;;;;;;31.58;52.19;101262.33;1833322;78;21528;-90
2021/07/20 04:25:36;;;;;;;5.12;3.58;;;;;;;32.01;50.73;101264.01;1833082;78;21022;-90
2021/07/20 04:28:06;;;;;;;6.80;3.58;;;;;;;32.51;49.54;101266.14;1833419;78;21003;-90
2021/07/20 04:30:39;;;;;;;4.60;3.12;;;;;;;32.88;48.25;101270.30;1833362;78;21739;-90
2021/07/20 04:33:06;;;;;;;;;;;;;;;33.30;47.51;101271.90;1835948;78;21453;-90
2021/07/20 04:35:33;;;;;;;6.85;2.62;;;;;;;33.80;45.66;101270.53;1833373;78;20191;-92
2021/07/20 04:38:00;;;;;;;6.92;3.40;;;;;;;34.06;45.40;101266.11;1811052;78;21162;-91
2021/07/20 04:40:27;;;;;;;6.25;2.87;;;;;;;34.54;44.35;101273.01;1782257;79;20939;-89
2021/07/20 04:42:53;;;;;;;6.70;2.70;;;;;;;34.97;43.50;101269.62;1800753;79;21465;-91
2021/07/20 04:45:20;;;;;;;9.70;3.30;;;;;;;35.31;42.64;101271.84;1791305;79;20971;-91
2021/07/20 04:47:47;;;;;;;4.78;2.67;;;;;;;35.94;42.04;101272.79;1795569;79;21524;-92
2021/07/20 04:50:14;;;;;;;7.33;2.40;;;;;;;36.49;41.05;101276.91;1793529;79;20976;-92
2021/07/20 04:52:41;;;;;;;5.62;3.00;;;;;;;37.01;40.15;101281.60;1797321;79;21011;-94
2021/07/20 04:55:09;;;;;;;5.80;2.45;;;;;;;37.36;39.06;101279.34;1800308;79;21971;-88
2021/07/20 04:57:36;;;;;;;3.42;2.22;;;;;;;37.61;38.46;101284.22;1796235;79;21019;-86
2021/07/20 05:00:07;;;;;;;6.35;2.05;;;;;;;38.03;37.81;101278.97;1798393;79;21602;-87
2021/07/20 05:02:36;;;;;;;5.22;2.47;;;;;;;38.29;36.59;101276.34;1802225;79;21221;-88
2021/07/20 05:05:04;;;;;;;8.18;2.92;;;;;;;38.43;36.22;101274.30;1799721;79;21014;-89
2021/07/20 05:07:31;;;;;;;5.17;2.55;;;;;;;38.86;35.42;101279.75;1798809;79;21780;-89
2021/07/20 05:09:58;;;;;;;7.08;2.77;;;;;;;38.88;34.75;101281.00;1771375;79;20992;-91
2021/07/20 05:12:24;;;;;;;4.85;2.33;;;;;;;39.00;34.21;101284.08;1797347;79;21004;-87
2021/07/20 05:14:51;;;;;;;5.10;2.62;;;;;;;39.19;33.82;101286.08;1776935;79;21202;-88
2021/07/20 05:17:18;;;;;;;36.00;4.53;;;;;;;39.21;33.36;101284.58;1801753;79;21127;-88
2021/07/20 05:19:45;;;;;;;3.45;2.17;;;;;;;39.33;32.88;101286.25;1789105;79;21999;-88
2021/07/20 05:22:13;;;;;;;4.97;2.33;;;;;;;39.57;32.63;101276.34;1794465;79;21516;-89
2021/07/20 05:24:40;;;;;;;6.53;2.37;;;;;;;40.01;32.13;101281.08;1800220;79;21015;-88
2021/07/20 05:27:07;;;;;;;5.90;2.50;;;;;;;40.09;31.34;101283.12;1800494;79;21449;-88
2021/07/20 05:29:34;;;;;;;5.00;2.67;;;;;;;40.14;31.21;101282.72;1733266;79;21054;-88
2021/07/20 05:32:00;;;;;;;4.10;2.60;;;;;;;40.48;31.17;101287.87;1799493;79;21737;-89
2021/07/20 05:34:27;;;;;;;3.75;2.40;;;;;;;40.50;30.19;101287.22;1800585;79;21006;-88
2021/07/20 05:36:54;;;;;;;5.92;4.50;;;;;;;40.45;30.08;101282.64;1801504;79;20979;-89
2021/07/20 05:39:21;;;;;;;5.00;2.20;;;;;;;40.60;29.73;101279.80;1797260;79;21038;-88
2021/07/20 05:41:47;;;;;;;4.70;2.12;;;;;;;40.70;29.37;101280.70;1767533;79;21019;-88
2021/07/20 05:44:15;;;;;;;8.03;3.70;;;;;;;40.70;29.25;101285.35;1800692;79;22399;-88
2021/07/20 05:46:42;;;;;;;6.72;2.30;;;;;;;40.13;28.59;101282.34;1799572;79;21015;-89
2021/07/20 05:49:12;;;;;;;6.00;3.70;;;;;;;38.15;28.45;101280.73;1791230;78;21565;-88
2021/07/20 05:51:40;;;;;;;2.37;2.02;;;;;;;35.88;29.25;101285.58;1777314;79;21399;-88
2021/07/20 05:54:06;;;;;;;4.85;2.15;;;;;;;33.72;30.57;101279.72;1778372;79;20991;-88
2021/07/20 05:56:33;;;;;;;6.20;2.20;;;;;;;32.04;32.08;101288.84;1789081;79;22572;-88
2021/07/20 05:59:00;;;;;;;4.28;2.85;;;;;;;30.68;33.37;101286.49;1778038;79;21477;-88
2021/07/20 06:01:29;;;;;;;7.78;2.40;;;;;;;29.53;34.80;101283.39;1788670;79;20936;-89
2021/07/20 06:04:00;;;;;;;10.58;5.35;;;;;;;28.53;36.10;101290.44;1796478;79;21376;-89
2021/07/20 06:06:27;;;;;;;5.92;3.77;;;;;;;27.72;37.32;101284.98;1798801;79;20932;-88
2021/07/20 06:08:59;;;;;;;13.15;2.45;;;;;;;27.09;38.20;101285.94;1791491;79;22465;-89
2021/07/20 06:11:26;;;;;;;3.87;3.08;;;;;;;26.63;39.28;101285.69;1765244;79;20964;-88
2021/07/20 06:13:53;;;;;;;3.67;1.95;;;;;;;26.29;40.17;101285.41;1793699;79;21011;-89
2021/07/20 06:16:22;;;;;;;5.42;2.10;;;;;;;25.91;40.68;101291.50;1785426;80;21476;-88
2021/07/20 06:18:49;;;;;;;2.17;1.62;;;;;;;25.61;41.53;101290.61;1799448;79;21097;-89
2021/07/20 06:21:16;;;;;;;2.98;1.70;;;;;;;25.31;41.80;101291.02;1800493;79;21745;-88
2021/07/20 06:23:48;;;;;;;6.47;2.10;;;;;;;24.97;42.34;101298.16;1774962;79;21041;-89
2021/07/20 06:26:22;;;;;;;2.85;1.62;;;;;;;24.70;42.77;101299.77;1802691;79;21043;-89
2021/07/20 06:28:53;;;;;;;5.85;2.10;;;;;;;24.50;43.19;101304.25;1800634;79;21090;-89
2021/07/20 06:31:20;;;;;;;6.47;2.02;;;;;;;24.28;43.42;101304.33;1799161;79;21051;-89
2021/07/20 06:33:47;;;;;;;4.80;2.60;;;;;;;24.18;43.95;101307.70;1800305;79;21776;-88
2021/07/20 06:36:17;;;;;;;3.95;2.40;;;;;;;24.09;43.88;101304.75;1801436;79;21008;-89
2021/07/20 06:38:43;;;;;;;2.52;2.25;;;;;;;23.93;43.92;101307.34;1800480;79;21045;-89
2021/07/20 06:41:11;;;;;;;2.35;1.70;;;;;;;23.72;44.45;101304.62;1800434;79;20980;-89
2021/07/20 06:43:38;;;;;;;3.12;1.50;;;;;;;23.47;44.55;101306.47;1802502;79;21066;-89
2021/07/20 06:46:06;;;;;;;5.40;1.50;;;;;;;23.40;45.01;101311.52;1798454;78;21885;-89
2021/07/20 06:48:33;;;;;;;3.58;1.50;;;;;;;23.37;44.67;101303.08;1792503;79;20980;-88
2021/07/20 06:51:00;;;;;;;19.42;3.83;;;;;;;23.37;44.90;101309.80;1792227;79;21066;-89
2021/07/20 06:53:28;;;;;;;6.30;1.82;;;;;;;23.38;45.09;101308.86;1796025;79;20984;-89
2021/07/20 06:55:57;;;;;;;7.83;1.70;;;;;;;23.34;45.17;101311.19;1809750;79;21109;-89
2021/07/20 06:58:26;;;;;;;2.60;1.70;;;;;;;23.35;45.14;101310.72;1807678;79;21763;-89
2021/07/20 07:00:58;;;;;;;1.80;1.17;;;;;;;23.34;44.65;101311.19;1800423;79;21223;-88
2021/07/20 07:03:41;;;;;;;3.95;1.45;;;;;;;23.39;44.68;101311.11;1782553;79;20995;-88
2021/07/20 07:06:07;;;;;;;3.47;1.87;;;;;;;23.43;44.63;101308.32;1793480;79;21038;-88
2021/07/20 07:08:34;;;;;;;5.45;1.70;;;;;;;23.47;45.03;101310.02;1767100;79;21052;-89
2021/07/20 07:11:01;;;;;;;3.37;1.50;;;;;;;23.52;45.06;101311.73;1782472;79;21763;-88
2021/07/20 07:13:29;;;;;;;6.72;2.30;;;;;;;23.53;45.30;101313.05;1801446;78;21065;-88
2021/07/20 07:15:56;;;;;;;3.05;1.60;;;;;;;23.57;45.43;101310.72;1776509;79;20987;-88
2021/07/20 07:18:23;;;;;;;3.08;1.65;;;;;;;23.61;45.18;101316.92;1800559;79;20983;-88
2021/07/20 07:20:50;;;;;;;2.47;1.40;;;;;;;23.64;45.09;101312.38;1799463;79;21027;-88
2021/07/20 07:23:20;;;;;;;6.62;3.70;;;;;;;23.68;45.05;101311.39;1797561;79;21894;-88
2021/07/20 07:25:51;;;;;;;5.55;2.12;;;;;;;23.71;44.91;101310.93;1800297;79;21532;-88
2021/07/20 07:28:18;;;;;;;8.15;2.20;;;;;;;23.69;44.27;101312.30;1800650;79;20979;-88
2021/07/20 07:30:47;;;;;;;4.45;1.80;;;;;;;23.57;44.30;101313.88;1800469;79;21165;-88
2021/07/20 07:33:14;;;;;;;10.75;2.33;;;;;;;23.56;44.68;101314.81;1800231;79;20983;-88
2021/07/20 07:35:42;;;;;;;3.20;1.65;;;;;;;23.59;45.02;101316.08;1789444;79;21741;-89
2021/07/20 07:38:09;;;;;;;2.90;2.10;;;;;;;23.64;45.21;101313.72;1782111;79;20984;-88
2021/07/20 07:40:35;;;;;;;37.00;4.72;;;;;;;23.70;45.26;101308.67;1796178;79;20998;-88
2021/07/20 07:43:03;;;;;;;5.58;2.20;;;;;;;23.79;45.27;101315.71;1799707;79;21105;-88
2021/07/20 07:45:31;;;;;;;3.90;2.40;;;;;;;23.78;45.11;101321.52;1783400;79;21022;-88
2021/07/20 07:47:58;;;;;;;8.43;3.55;;;;;;;23.78;44.80;101317.92;1783206;79;22453;-86
2021/07/20 07:50:25;;;;;;;3.40;2.77;;;;;;;23.72;44.77;101318.06;1800578;79;20991;-88
2021/07/20 07:52:53;;;;;;;3.47;1.70;;;;;;;23.67;44.43;101315.02;1800490;79;21046;-88
2021/07/20 07:55:22;;;;;;;5.67;2.42;;;;;;;23.70;44.82;101316.74;1798619;79;21564;-88
2021/07/20 07:57:48;;;;;;;7.05;2.35;;;;;;;23.81;45.05;101322.81;1801814;79;21026;-88
2021/07/20 08:00:15;;;;;;;3.72;1.70;;;;;;;23.92;45.01;101323.94;1801599;79;21994;-88
2021/07/20 08:02:50;;;;;;;15.98;2.58;;;;;;;23.96;44.48;101320.73;1798444;78;20983;-87
2021/07/20 08:05:17;;;;;;;6.60;2.85;;;;;;;23.99;44.19;101319.33;1800539;79;20991;-87
2021/07/20 08:07:43;;;;;;;1.82;1.57;;;;;;;24.05;44.20;101320.53;1790867;78;21018;-88
2021/07/20 08:10:11;;;;;;;5.45;2.00;;;;;;;24.16;44.19;101317.61;1797399;79;20972;-88
2021/07/20 08:12:38;;;;;;;5.37;2.58;;;;;;;24.29;43.85;101315.50;1792573;79;21800;-87
2021/07/20 08:15:06;;;;;;;4.58;1.90;;;;;;;24.45;43.91;101324.52;1800458;79;21030;-88
2021/07/20 08:17:33;;;;;;;10.30;2.80;;;;;;;24.53;43.55;101319.02;1790471;79;20995;-88
2021/07/20 08:20:00;;;;;;;3.27;1.87;;;;;;;24.53;43.19;101319.46;1783504;79;21236;-88
2021/07/20 08:22:30;;;;;;;3.58;1.40;;;;;;;24.62;42.91;101321.93;1798118;79;20975;-89
2021/07/20 08:25:06;;;;;;;16.90;2.70;;;;;;;24.68;42.78;101323.59;1800644;79;22388;-88
2021/07/20 08:27:48;;;;;;;4.92;1.80;;;;;;;24.71;42.62;101319.48;1793145;79;20983;-88
2021/07/20 08:30:15;;;;;;;4.00;2.00;;;;;;;24.77;42.74;101313.47;1796541;79;20964;-88
2021/07/20 08:32:51;;;;;;;2.72;1.57;;;;;;;24.91;42.56;101321.22;1790172;79;21465;-88
2021/07/20 08:35:21;;;;;;;6.87;1.77;;;;;;;24.97;42.26;101312.97;1800525;79;21051;-88
2021/07/20 08:37:48;;;;;;;3.17;1.90;;;;;;;25.03;41.71;101314.63;1796479;79;21760;-88
2021/07/20 08:40:38;;;;;;;4.87;1.90;;;;;;;25.01;41.26;101311.09;1803103;78;21098;-88
2021/07/20 08:43:44;;;;;;;5.22;1.70;;;;;;;24.86;41.38;101315.53;1800630;79;20975;-88
2021/07/20 08:46:44;;;;;;;3.50;2.85;;;;;;;24.85;41.73;101315.97;1800448;79;20972;-88
2021/07/20 08:49:31;;;;;;;12.15;2.05;;;;;;;24.96;40.95;101313.91;1800575;79;21000;-88
2021/07/20 08:52:31;;;;;;;2.70;1.42;;;;;;;24.98;40.73;101314.75;1800510;79;21762;-88
2021/07/20 08:55:01;;;;;;;1.75;1.37;;;;;;;24.99;40.55;101308.42;1800277;79;21031;-89
2021/07/20 08:57:35;;;;;;;6.60;2.10;;;;;;;25.07;40.08;101312.73;1800472;79;21054;-88
2021/07/20 09:00:16;;;;;;;2.22;1.67;;;;;;;25.10;39.94;101310.84;1771703;78;21202;-89
2021/07/20 09:03:14;;;;;;;1.92;1.40;;;;;;;25.06;40.09;101309.60;1795700;79;21042;-88
2021/07/20 09:06:05;;;;;;;4.72;2.15;;;;;;;25.06;40.42;101306.91;1799807;79;21892;-87
2021/07/20 09:08:38;;;;;;;2.58;1.65;;;;;;;25.11;40.41;101300.95;1800471;79;21039;-89
2021/07/20 09:11:54;;;;;;;2.20;1.20;;;;;;;25.17;40.37;101304.81;1793891;79;21024;-89
2021/07/20 09:14:46;;;;;;;8.93;1.20;;;;;;;25.25;40.19;101298.81;1800540;79;21472;-89
2021/07/20 09:17:36;;;;;;;2.70;1.45;;;;;;;25.33;39.60;101299.47;1800671;79;20984;-88
2021/07/20 09:20:09;;;;;;;1.85;1.15;;;;;;;25.37;39.45;101293.06;1800537;79;21802;-89
2021/07/20 09:22:47;;;;;;;3.72;1.40;;;;;;;25.38;39.30;101291.27;1790545;79;20983;-89
2021/07/20 09:25:31;;;;;;;6.90;4.00;;;;;;;25.33;39.12;101291.38;1799475;79;21453;-88
2021/07/20 09:28:19;;;;;;;7.33;2.65;;;;;;;25.37;39.08;101294.41;1800292;79;21089;-89
2021/07/20 09:30:49;;;;;;;3.45;2.20;;;;;;;25.45;39.45;101283.88;1800461;79;21019;-89
2021/07/20 09:33:43;;;;;;;5.40;2.20;;;;;;;25.46;39.72;101283.84;1796591;79;21750;-89
2021/07/20 09:36:35;;;;;;;2.92;1.77;;;;;;;25.43;39.46;101281.22;1800540;79;21019;-89
2021/07/20 09:39:19;;;;;;;4.97;2.00;;;;;;;25.28;39.20;101287.05;1800577;79;21132;-88
2021/07/20 09:41:56;;;;;;;2.12;1.55;;;;;;;25.02;38.99;101276.04;1800765;79;21003;-88
2021/07/20 09:44:39;;;;;;;2.37;1.80;;;;;;;24.90;38.66;101279.04;1800207;79;22263;-88
2021/07/20 09:47:20;;;;;;;8.33;2.43;;;;;;;24.56;38.73;101248.08;1797119;79;21796;-88
2021/07/20 09:50:14;;;;;;;9.68;7.28;;;;;;;24.56;38.73;101248.08;1793052;78;21864;-88
2021/07/20 09:53:27;;;;;;;5.20;2.80;;;;;;;24.75;39.25;101268.67;1800401;79;21023;-88
2021/07/20 09:56:31;;;;;;;2.85;2.02;;;;;;;24.80;39.10;101262.72;1797004;79;21305;-88
2021/07/20 09:59:33;;;;;;;10.60;2.35;;;;;;;24.78;39.12;101257.37;1800318;79;21482;-89
2021/07/20 10:02:01;;;;;;;3.17;2.50;;;;;;;24.91;39.41;101261.06;1723950;82;21941;-88
2021/07/20 10:04:45;;;;;;;4.25;2.00;;;;;;;24.97;39.30;101262.27;1774391;79;21096;-89
2021/07/20 10:07:22;;;;;;;4.05;1.52;;;;;;;24.99;39.30;101260.42;1788083;79;21064;-88
2021/07/20 10:10:20;;;;;;;4.42;1.70;;;;;;;25.00;39.29;101260.39;1799884;79;21416;-89
2021/07/20 10:13:01;;;;;;;27.35;3.83;;;;;;;25.04;39.11;101253.11;1801986;79;21043;-89
2021/07/20 10:15:44;;;;;;;20.05;3.22;;;;;;;25.12;38.97;101255.59;1800582;79;21664;-89
2021/07/20 10:18:24;;;;;;;4.55;1.50;;;;;;;25.16;38.75;101254.10;1799984;79;20987;-89
2021/07/20 10:20:58;;;;;;;2.27;1.40;;;;;;;25.25;38.46;101245.39;1800784;79;21504;-89
2021/07/20 10:23:44;;;;;;;3.30;1.12;;;;;;;25.39;38.04;101242.70;1800610;79;21027;-89
2021/07/20 10:26:19;;;;;;;2.67;1.67;;;;;;;25.49;38.20;101242.43;1791683;79;21007;-88
2021/07/20 10:29:11;;;;;;;2.92;2.20;;;;;;;25.44;38.30;101238.54;1795756;79;21846;-88
2021/07/20 10:32:08;;;;;;;3.80;1.67;;;;;;;25.45;38.36;101234.02;1795074;79;21472;-88
2021/07/20 10:34:36;;;;;;;3.70;2.27;;;;;;;25.42;37.99;101229.62;1799404;79;21489;-88
2021/07/20 10:37:10;;;;;;;5.47;2.15;;;;;;;25.37;37.94;101230.20;1799616;78;21477;-89
2021/07/20 10:39:41;;;;;;;2.12;1.55;;;;;;;25.46;37.80;101233.98;1798821;79;21524;-87
2021/07/20 10:42:32;;;;;;;4.25;1.70;;;;;;;25.52;37.46;101229.75;1800316;79;21695;-89
2021/07/20 10:45:08;;;;;;;2.62;1.57;;;;;;;25.54;37.43;101233.28;1801927;79;20971;-89
2021/07/20 10:48:10;;;;;;;2.60;1.60;;;;;;;25.65;37.21;101226.23;1803573;79;21006;-89
2021/07/20 10:50:56;;;;;;;4.90;1.47;;;;;;;25.78;37.03;101230.31;1787519;79;20995;-90
2021/07/20 10:53:37;;;;;;;6.37;2.17;;;;;;;25.86;37.31;101221.11;1797616;79;21484;-89
2021/07/20 10:56:32;;;;;;;4.92;1.40;;;;;;;26.11;37.45;101215.39;1800717;79;21764;-89
2021/07/20 10:59:20;;;;;;;4.80;1.50;;;;;;;26.30;37.48;101221.06;1796927;79;21007;-89
2021/07/20 11:02:08;;;;;;;9.45;1.77;;;;;;;26.42;37.00;101213.02;1800690;79;20983;-88
2021/07/20 11:04:57;;;;;;;3.90;1.57;;;;;;;26.66;37.23;101213.16;1768011;79;21120;-89
2021/07/20 11:08:09;;;;;;;5.35;1.42;;;;;;;26.99;37.15;101205.69;1777343;79;21035;-89
2021/07/20 11:10:52;;;;;;;4.03;1.72;;;;;;;27.32;36.85;101210.80;1800674;78;22739;-89
2021/07/20 11:13:30;;;;;;;3.65;2.00;;;;;;;27.61;36.59;101202.94;1789889;79;20999;-90
2021/07/20 11:15:59;;;;;;;3.00;1.70;;;;;;;27.70;36.14;101216.55;1800717;79;21505;-90
2021/07/20 11:18:33;;;;;;;4.83;1.65;;;;;;;27.59;35.79;101210.23;1798647;79;21572;-89
2021/07/20 11:21:03;;;;;;;3.62;1.75;;;;;;;27.49;35.55;101212.38;1800485;79;21093;-89
2021/07/20 11:23:36;;;;;;;8.08;2.22;;;;;;;27.30;35.14;101202.74;1800134;79;21751;-88
2021/07/20 11:26:08;;;;;;;6.67;2.08;;;;;;;27.18;35.11;101203.19;1778354;79;20987;-87
2021/07/20 11:28:44;;;;;;;3.50;2.05;;;;;;;27.15;34.90;101211.39;1796337;79;21292;-86
2021/07/20 11:31:12;;;;;;;4.85;1.92;;;;;;;27.06;35.00;101201.80;1800116;79;21019;-85
2021/07/20 11:34:21;;;;;;;4.62;2.20;;;;;;;27.05;35.32;101204.10;1767468;79;21008;-86
2021/07/20 11:36:47;;;;;;;2.60;1.72;;;;;;;27.02;35.42;101201.50;1740969;81;21898;-84
2021/07/20 11:39:17;;;;;;;2.60;1.80;;;;;;;26.87;35.62;101189.91;1775055;79;21038;-84
2021/07/20 11:42:14;;;;;;;3.30;1.82;;;;;;;26.92;35.87;101194.69;1800659;79;21045;-84
2021/07/20 11:44:49;;;;;;;5.72;2.42;;;;;;;27.03;35.74;101196.97;1799471;79;21051;-84
2021/07/20 11:47:36;;;;;;;5.08;2.20;;;;;;;27.24;35.92;101200.73;1800412;79;21022;-84
2021/07/20 11:50:33;;;;;;;3.52;1.85;;;;;;;27.50;35.66;101191.66;1800281;79;22602;-84
2021/07/20 11:53:38;;;;;;;3.42;1.98;;;;;;;27.55;34.78;101196.39;1800168;79;21085;-85
2021/07/20 11:56:16;;;;;;;3.75;1.85;;;;;;;27.45;34.73;101190.95;1799100;79;20947;-85